This is the latest recevied weather packets stored in our database for station/object OE9SAU-10. If no packets are shown the sender has not sent any weather packets the latest 10 day(s).
| Time | Temp. | Humidity | Pressure | Rain* | Wind** | Luminosity | Snow |
|---|---|---|---|---|---|---|---|
| 1777835011 | 23.89° C | 30% | 1017.2 hPa | - | - | - | - |
| 1777834111 | 23.89° C | 30% | 1017.2 hPa | - | - | - | - |
| 1777833211 | 24.44° C | 30% | 1017.1 hPa | - | - | - | - |
| 1777832310 | 23.89° C | 32% | 1017 hPa | - | - | - | - |
| 1777831410 | 24.44° C | 32% | 1017 hPa | - | - | - | - |
| 1777830510 | 26.11° C | 29% | 1016.9 hPa | - | - | - | - |
| 1777829610 | 26.67° C | 30% | 1016.5 hPa | - | - | - | - |
| 1777828710 | 27.22° C | 28% | 1016.3 hPa | - | - | - | - |
| 1777827810 | 27.22° C | 27% | 1016.2 hPa | - | - | - | - |
| 1777826910 | 27.22° C | 27% | 1016.4 hPa | - | - | - | - |
| 1777826010 | 27.22° C | 27% | 1016.1 hPa | - | - | - | - |
| 1777825110 | 27.78° C | 26% | 1016.1 hPa | - | - | - | - |
| 1777824210 | 27.78° C | 27% | 1015.9 hPa | - | - | - | - |
| 1777823310 | 27.78° C | 28% | 1016 hPa | - | - | - | - |
| 1777822410 | 27.78° C | 27% | 1015.8 hPa | - | - | - | - |
| 1777821510 | 27.78° C | 27% | 1015.8 hPa | - | - | - | - |
| 1777820610 | 27.78° C | 27% | 1015.8 hPa | - | - | - | - |
| 1777819710 | 27.78° C | 27% | 1015.9 hPa | - | - | - | - |
| 1777818809 | 27.78° C | 27% | 1016.1 hPa | - | - | - | - |
| 1777817909 | 27.78° C | 27% | 1016.3 hPa | - | - | - | - |
| 1777817009 | 27.78° C | 26% | 1016.3 hPa | - | - | - | - |
| 1777816109 | 27.22° C | 26% | 1016.3 hPa | - | - | - | - |
| 1777815209 | 27.22° C | 26% | 1016.3 hPa | - | - | - | - |
| 1777814309 | 26.67° C | 25% | 1016.5 hPa | - | - | - | - |
| 1777813409 | 27.22° C | 25% | 1016.7 hPa | - | - | - | - |
* Rain since midnight (hover to see other rain measurements)
** Current wind speed in m/s (hover to see current wind gust speed)